createdAt,value
2023-05-24T00:03:16.846Z,69.54
2023-05-24T00:07:21.641Z,70.01
2023-05-24T00:11:25.061Z,69.59
2023-05-24T00:15:28.244Z,69.85
2023-05-24T00:19:31.596Z,69.98
2023-05-24T00:23:37.389Z,70.00
2023-05-24T00:27:40.733Z,69.84
2023-05-24T00:31:43.735Z,69.76
2023-05-24T00:35:47.560Z,69.94
2023-05-24T00:39:52.220Z,69.91
2023-05-24T00:43:55.598Z,69.93
2023-05-24T00:47:58.880Z,69.88
2023-05-24T00:52:02.695Z,69.86
2023-05-24T00:56:08.682Z,69.79
2023-05-24T01:00:13.089Z,70.02
2023-05-24T01:04:18.480Z,70.35
2023-05-24T01:08:38.688Z,71.15
2023-05-24T01:12:55.172Z,71.46
2023-05-24T01:17:05.910Z,71.65
2023-05-24T01:21:24.498Z,71.29
2023-05-24T01:25:47.041Z,71.50
2023-05-24T01:29:53.592Z,70.66
2023-05-24T01:33:56.829Z,70.64
2023-05-24T01:38:01.565Z,70.62
2023-05-24T01:42:13.222Z,70.63
2023-05-24T01:46:24.149Z,71.14
2023-05-24T01:50:33.136Z,70.92
2023-05-24T01:54:44.938Z,71.44
2023-05-24T01:58:54.545Z,70.73
2023-05-24T02:02:59.413Z,70.81
2023-05-24T02:07:02.880Z,70.29
2023-05-24T02:11:06.283Z,70.57
2023-05-24T02:15:11.114Z,70.13
2023-05-24T02:19:17.337Z,69.78
2023-05-24T02:23:20.838Z,69.78
2023-05-24T02:27:25.221Z,69.92
2023-05-24T02:31:29.311Z,69.71
2023-05-24T02:35:34.519Z,69.93
2023-05-24T02:39:37.968Z,70.39
2023-05-24T02:43:41.129Z,70.18
2023-05-24T02:47:44.642Z,70.05
2023-05-24T02:51:49.323Z,70.22
2023-05-24T02:55:52.670Z,70.13
2023-05-24T02:59:58.221Z,70.35
2023-05-24T03:04:02.160Z,69.76
2023-05-24T03:08:07.983Z,70.14
2023-05-24T03:12:11.573Z,70.23
2023-05-24T03:16:15.080Z,70.23
2023-05-24T03:20:18.947Z,70.53
2023-05-24T03:24:23.454Z,70.62
2023-05-24T03:28:28.892Z,70.42
2023-05-24T03:32:32.110Z,70.50
2023-05-24T03:36:35.949Z,70.76
2023-05-24T03:40:42.182Z,70.30
2023-05-24T03:44:45.512Z,70.49
2023-05-24T03:48:50.007Z,70.38
2023-05-24T03:52:53.550Z,70.48
2023-05-24T03:56:58.230Z,70.78
2023-05-24T04:01:02.760Z,70.04
2023-05-24T04:05:06.120Z,70.65
2023-05-24T04:09:10.896Z,70.09
2023-05-24T04:13:15.669Z,70.02
2023-05-24T04:17:19.395Z,70.55
2023-05-24T04:21:24.780Z,70.59
2023-05-24T04:25:28.687Z,70.33
2023-05-24T04:29:34.090Z,69.78
2023-05-24T04:33:37.688Z,69.83
2023-05-24T04:37:42.083Z,67.77
2023-05-24T04:41:45.742Z,66.82
2023-05-24T04:45:50.759Z,66.57
2023-05-24T04:49:54.930Z,66.95
2023-05-24T04:54:01.764Z,67.02
2023-05-24T04:58:06.447Z,66.93
2023-05-24T05:02:11.163Z,66.87
2023-05-24T05:06:15.594Z,66.78
2023-05-24T05:10:18.977Z,66.54
2023-05-24T05:14:22.270Z,66.56
2023-05-24T05:18:27.586Z,66.61
2023-05-24T05:22:31.523Z,65.60
2023-05-24T05:26:35.739Z,65.64
2023-05-24T05:30:39.029Z,65.23
2023-05-24T05:34:43.591Z,65.53
2023-05-24T05:38:48.547Z,66.95
2023-05-24T05:42:51.841Z,65.76
2023-05-24T05:46:55.111Z,65.51
2023-05-24T05:50:59.670Z,65.29
2023-05-24T05:55:03.306Z,65.18
2023-05-24T05:59:06.642Z,65.19
2023-05-24T06:03:10.377Z,65.37
2023-05-24T06:07:14.833Z,64.44
2023-05-24T06:11:19.060Z,64.37
2023-05-24T06:15:23.244Z,64.24
2023-05-24T06:19:27.428Z,64.24
2023-05-24T06:23:32.298Z,64.58
2023-05-24T06:27:36.878Z,64.35
2023-05-24T06:31:40.336Z,64.32
2023-05-24T06:35:43.875Z,64.38
2023-05-24T06:39:49.143Z,64.58
2023-05-24T06:43:52.331Z,64.04
2023-05-24T06:47:55.452Z,63.45
2023-05-24T06:51:59.118Z,63.45
2023-05-24T06:56:04.277Z,64.00
2023-05-24T07:00:12.582Z,63.86
2023-05-24T07:04:15.770Z,62.63
2023-05-24T07:08:22.140Z,60.93
2023-05-24T07:12:26.596Z,62.21
2023-05-24T07:16:29.630Z,59.86
2023-05-24T07:20:32.906Z,60.66
2023-05-24T07:24:36.711Z,60.94
2023-05-24T07:28:41.962Z,60.86
2023-05-24T07:32:46.016Z,60.90
2023-05-24T07:36:49.655Z,60.32
2023-05-24T07:40:53.805Z,60.72
2023-05-24T07:44:58.543Z,60.55
2023-05-24T07:49:01.788Z,61.18
2023-05-24T07:53:05.481Z,60.49
2023-05-24T07:57:10.951Z,61.57
2023-05-24T08:01:17.067Z,61.33
2023-05-24T08:05:20.392Z,61.35
2023-05-24T08:09:24.155Z,61.34
2023-05-24T08:13:27.355Z,62.34
2023-05-24T08:17:32.165Z,60.59
2023-05-24T08:21:35.918Z,60.11
2023-05-24T08:25:39.207Z,59.72
2023-05-24T08:29:42.631Z,58.04
2023-05-24T08:33:50.433Z,56.60
2023-05-24T08:37:55.195Z,54.93
2023-05-24T08:42:08.700Z,54.56
2023-05-24T08:46:15.839Z,51.73
2023-05-24T08:50:23.093Z,54.73
2023-05-24T08:54:26.733Z,50.33
2023-05-24T08:58:30.615Z,47.92
2023-05-24T09:02:34.606Z,47.45
2023-05-24T09:06:39.594Z,46.43
2023-05-24T09:10:53.952Z,45.42
2023-05-24T09:14:59.055Z,44.18
2023-05-24T09:19:03.840Z,45.28
2023-05-24T09:23:08.783Z,45.06
2023-05-24T09:27:12.399Z,43.77
2023-05-24T09:31:15.901Z,43.40
2023-05-24T09:35:19.790Z,42.77
2023-05-24T09:39:24.539Z,42.75
2023-05-24T09:43:30.732Z,44.72
2023-05-24T09:47:35.555Z,39.65
2023-05-24T09:51:39.793Z,43.12
2023-05-24T09:55:44.924Z,44.50
2023-05-24T09:59:48.944Z,42.49
2023-05-24T10:03:55.616Z,43.92
2023-05-24T10:07:59.204Z,42.95
2023-05-24T10:12:06.266Z,43.37
2023-05-24T10:16:09.487Z,41.97
2023-05-24T10:20:13.536Z,41.72
2023-05-24T10:24:23.167Z,43.51
2023-05-24T10:28:28.578Z,38.86
2023-05-24T10:32:33.852Z,39.60
2023-05-24T10:36:40.673Z,38.81
2023-05-24T10:40:45.272Z,39.99
2023-05-24T10:44:49.778Z,43.62
2023-05-24T10:49:03.165Z,42.11
2023-05-24T10:53:14.834Z,41.29
2023-05-24T10:57:26.054Z,42.33
2023-05-24T11:01:32.326Z,41.04
2023-05-24T11:05:37.422Z,40.56
2023-05-24T11:09:46.521Z,41.20
2023-05-24T11:13:51.089Z,39.68
2023-05-24T11:18:17.533Z,41.47
2023-05-24T11:22:22.883Z,40.76
2023-05-24T11:26:26.236Z,43.05
2023-05-24T11:30:29.934Z,41.73
2023-05-24T11:34:35.218Z,42.37
2023-05-24T11:38:38.811Z,40.19
2023-05-24T11:42:46.427Z,40.70
2023-05-24T11:46:49.936Z,40.58
2023-05-24T11:50:54.725Z,40.40
2023-05-24T11:54:58.343Z,41.56
2023-05-24T11:59:11.408Z,43.42
2023-05-24T12:03:14.938Z,42.17
2023-05-24T12:07:19.663Z,43.07
2023-05-24T12:11:23.506Z,42.60
2023-05-24T12:15:26.753Z,43.47
2023-05-24T12:19:35.916Z,44.08
2023-05-24T12:23:41.338Z,45.29
2023-05-24T12:27:48.299Z,44.79
2023-05-24T12:31:52.231Z,46.48
2023-05-24T12:35:56.539Z,46.03
2023-05-24T12:40:01.890Z,46.31
2023-05-24T12:44:05.255Z,46.66
2023-05-24T12:48:08.854Z,45.81
2023-05-24T12:52:12.831Z,46.74
2023-05-24T12:56:17.666Z,46.89
2023-05-24T13:00:23.255Z,47.88
2023-05-24T13:04:28.241Z,47.08
2023-05-24T13:08:32.020Z,47.14
2023-05-24T13:12:37.187Z,47.03
2023-05-24T13:16:40.494Z,48.40
2023-05-24T13:20:43.860Z,47.16
2023-05-24T13:24:47.428Z,47.57
2023-05-24T13:32:56.490Z,46.95
2023-05-24T13:37:00.198Z,44.14
2023-05-24T13:41:04.118Z,43.95
2023-05-24T13:45:08.857Z,45.69
2023-05-24T13:49:14.404Z,43.52
2023-05-24T13:53:17.772Z,43.67
2023-05-24T13:57:23.382Z,42.52
2023-05-24T14:01:28.537Z,41.83
2023-05-24T14:05:33.671Z,41.98
2023-05-24T14:09:37.102Z,42.56
2023-05-24T14:14:20.378Z,43.55
2023-05-24T14:18:09.890Z,40.78
2023-05-24T14:22:14.855Z,43.36
2023-05-24T14:26:18.808Z,40.67
2023-05-24T14:30:22.837Z,41.64
2023-05-24T14:34:27.029Z,43.21
2023-05-24T14:38:32.025Z,43.92
2023-05-24T14:42:35.204Z,42.10
2023-05-24T14:46:41.600Z,42.55
2023-05-24T14:50:45.146Z,43.70
2023-05-24T14:54:49.858Z,44.00
2023-05-24T14:58:55.727Z,45.17
2023-05-24T15:02:58.699Z,44.93
2023-05-24T15:07:02.077Z,43.43
2023-05-24T15:11:08.293Z,45.17
2023-05-24T15:15:12.578Z,46.08
2023-05-24T15:19:16.049Z,45.88
2023-05-24T15:23:21.232Z,46.98
2023-05-24T15:27:25.918Z,46.20
2023-05-24T15:31:29.708Z,46.86
2023-05-24T15:35:33.134Z,47.47
2023-05-24T15:39:37.228Z,47.72
2023-05-24T15:43:41.598Z,47.50
2023-05-24T15:47:44.804Z,47.52
2023-05-24T15:52:03.780Z,48.73
2023-05-24T15:56:08.474Z,49.56
2023-05-24T16:00:15.856Z,48.62
2023-05-24T16:04:19.111Z,48.72
2023-05-24T16:08:28.085Z,48.46
2023-05-24T16:12:33.048Z,49.37
2023-05-24T16:16:38.195Z,49.44
2023-05-24T16:20:41.647Z,49.28
2023-05-24T16:24:45.606Z,48.80
2023-05-24T16:28:48.999Z,47.91
2023-05-24T16:32:54.051Z,47.75
2023-05-24T16:36:57.762Z,49.18
2023-05-24T16:41:02.828Z,48.89
2023-05-24T16:45:07.323Z,49.22
2023-05-24T16:49:12.313Z,49.61
2023-05-24T16:53:15.660Z,49.16
2023-05-24T16:57:18.905Z,50.69
2023-05-24T17:01:22.572Z,51.14
2023-05-24T17:05:27.260Z,52.00
2023-05-24T17:09:30.542Z,51.69
2023-05-24T17:13:34.566Z,52.00
2023-05-24T17:17:38.540Z,52.28
2023-05-24T17:21:43.753Z,53.10
2023-05-24T17:25:46.903Z,53.64
2023-05-24T17:29:50.095Z,55.32
2023-05-24T17:33:53.715Z,55.23
2023-05-24T17:37:58.444Z,57.31
2023-05-24T17:42:03.062Z,57.82
2023-05-24T17:46:08.088Z,58.72
2023-05-24T17:50:12.052Z,58.97
2023-05-24T17:54:18.741Z,59.63
2023-05-24T17:58:21.826Z,59.85
2023-05-24T18:02:25.345Z,60.48
2023-05-24T18:06:28.505Z,61.18
2023-05-24T18:10:34.101Z,61.79
2023-05-24T18:14:38.367Z,62.03
2023-05-24T18:18:44.401Z,62.36
2023-05-24T18:22:47.640Z,62.74
2023-05-24T18:26:52.295Z,62.30
2023-05-24T18:30:56.188Z,62.99
2023-05-24T18:34:59.480Z,63.28
2023-05-24T18:39:03.685Z,64.08
2023-05-24T18:43:08.338Z,64.06
2023-05-24T18:47:12.241Z,64.58
2023-05-24T18:51:15.586Z,65.25
2023-05-24T18:55:19.017Z,65.16
2023-05-24T18:59:29.059Z,65.15
2023-05-24T19:03:32.554Z,65.45
2023-05-24T19:07:36.626Z,65.25
2023-05-24T19:11:41.077Z,65.82
2023-05-24T19:15:45.893Z,64.91
2023-05-24T19:19:51.861Z,65.48
2023-05-24T19:23:55.337Z,65.83
2023-05-24T19:28:00.777Z,66.02
2023-05-24T19:32:07.574Z,66.17
2023-05-24T19:36:12.603Z,66.54
2023-05-24T19:40:15.923Z,67.04
2023-05-24T19:44:19.364Z,66.38
2023-05-24T19:48:25.075Z,66.52
2023-05-24T19:52:28.460Z,67.24
2023-05-24T19:56:32.380Z,67.76
2023-05-24T20:00:35.988Z,68.29
2023-05-24T20:04:42.453Z,68.94
2023-05-24T20:08:48.069Z,69.20
2023-05-24T20:12:51.568Z,68.83
2023-05-24T20:16:54.772Z,69.30
2023-05-24T20:21:00.294Z,69.06
2023-05-24T20:25:03.553Z,69.42
2023-05-24T20:29:07.073Z,69.43
2023-05-24T20:33:10.226Z,69.21
2023-05-24T20:37:18.225Z,69.38
2023-05-24T20:41:21.362Z,69.70
2023-05-24T20:45:24.877Z,69.38
2023-05-24T20:49:29.255Z,69.19
2023-05-24T20:53:33.870Z,69.19
2023-05-24T20:57:37.111Z,69.11
2023-05-24T21:01:40.906Z,69.73
2023-05-24T21:05:44.742Z,69.72
2023-05-24T21:09:50.531Z,70.26
2023-05-24T21:13:53.594Z,70.49
2023-05-24T21:17:56.970Z,70.51
2023-05-24T21:22:00.419Z,70.64
2023-05-24T21:26:05.168Z,70.45
2023-05-24T21:30:09.757Z,71.16
2023-05-24T21:34:13.254Z,71.10
2023-05-24T21:38:16.764Z,71.10
2023-05-24T21:46:45.524Z,70.47
2023-05-24T21:50:48.832Z,70.57
2023-05-24T21:54:52.296Z,70.31
2023-05-24T21:58:57.015Z,70.36
2023-05-24T22:03:00.562Z,70.40
2023-05-24T22:07:03.780Z,70.62
2023-05-24T22:11:08.193Z,70.67
2023-05-24T22:15:13.492Z,70.33
2023-05-24T22:19:20.286Z,70.58
2023-05-24T22:23:28.577Z,70.37
2023-05-24T22:27:32.307Z,69.94
2023-05-24T22:31:37.177Z,70.16
2023-05-24T22:35:40.622Z,70.67
2023-05-24T22:39:45.685Z,70.60
2023-05-24T22:43:48.924Z,70.56
2023-05-24T22:47:55.107Z,70.59
2023-05-24T22:51:59.001Z,70.56
2023-05-24T22:56:02.504Z,70.73
2023-05-24T23:00:08.509Z,70.45
2023-05-24T23:04:21.036Z,70.75
2023-05-24T23:08:26.009Z,70.31
2023-05-24T23:12:29.480Z,70.45
2023-05-24T23:16:34.363Z,70.78
2023-05-24T23:20:40.411Z,70.39
2023-05-24T23:24:44.116Z,71.38
2023-05-24T23:28:47.323Z,71.36
2023-05-24T23:32:50.812Z,71.16
2023-05-24T23:36:55.753Z,70.49
2023-05-24T23:40:59.152Z,70.87
2023-05-24T23:45:02.679Z,70.83
2023-05-24T23:49:05.883Z,70.92
2023-05-24T23:53:10.663Z,70.97
2023-05-24T23:57:15.865Z,70.80
